Time;durP1;ratioP1;P1;durP2;ratioP2;P2;SDS_P1;SDS_P2;PMS_P1;PMS_P2;Temp;Humidity;BMP_temperature;BMP_pressure;BME280_temperature;BME280_humidity;BME280_pressure;Samples;Min_cycle;Max_cycle;Signal;HPM_P1;HPM_P2
2023/10/21 00:00:24;;;;;;;55.20;26.03;;;;;;;;;;5112162;27;20527;-74
2023/10/21 00:02:51;;;;;;;54.35;26.45;;;12.20;99.90;;;;;;5094486;28;20413;-75
2023/10/21 00:05:17;;;;;;;50.00;25.50;;;;;;;;;;5098772;28;20406;-75
2023/10/21 00:07:43;;;;;;;49.88;24.65;;;;;;;;;;5076954;28;20792;-75
2023/10/21 00:10:09;;;;;;;50.38;24.52;;;;;;;;;;5112316;27;20425;-75
2023/10/21 00:12:38;;;;;;;52.35;24.45;;;;;;;;;;5135142;27;20402;-75
2023/10/21 00:15:07;;;;;;;49.60;24.75;;;11.90;99.90;;;;;;5101185;28;20499;-75
2023/10/21 00:17:33;;;;;;;50.00;23.67;;;;;;;;;;5090074;28;20402;-75
2023/10/21 00:20:00;;;;;;;41.00;22.03;;;;;;;;;;5103863;28;20408;-74
2023/10/21 00:22:26;;;;;;;41.50;22.15;;;;;;;;;;5075749;28;20413;-75
2023/10/21 00:24:52;;;;;;;40.17;21.38;;;;;;;;;;5081573;28;20939;-75
2023/10/21 00:27:18;;;;;;;41.42;20.92;;;;;;;;;;5131407;27;20415;-74
2023/10/21 00:29:45;;;;;;;40.72;21.23;;;;;;;;;;5107933;27;20427;-75
2023/10/21 00:32:11;;;;;;;37.27;19.13;;;;;;;;;;5079749;28;20889;-74
2023/10/21 00:34:40;;;;;;;36.17;19.55;;;;;;;;;;5081736;28;20892;-74
2023/10/21 00:37:07;;;;;;;38.90;19.55;;;12.50;99.90;;;;;;5100879;28;20436;-74
2023/10/21 00:39:37;;;;;;;35.08;19.35;;;;;;;;;;5092050;28;20438;-76
2023/10/21 00:42:03;;;;;;;29.55;17.48;;;;;;;;;;5082675;28;20427;-75
2023/10/21 00:44:29;;;;;;;32.50;17.90;;;;;;;;;;5107671;28;20424;-75
2023/10/21 00:46:56;;;;;;;33.70;17.92;;;;;;;;;;5085957;28;20436;-75
2023/10/21 00:49:22;;;;;;;37.45;17.75;;;;;;;;;;5099459;28;20416;-75
2023/10/21 00:51:49;;;;;;;36.03;18.02;;;;;;;;;;5111939;28;20458;-75
2023/10/21 00:54:18;;;;;;;28.65;16.23;;;12.60;99.90;;;;;;5085180;28;20414;-75
2023/10/21 00:56:45;;;;;;;30.58;16.70;;;;;;;;;;5094975;28;20786;-75
2023/10/21 00:59:11;;;;;;;26.42;15.38;;;;;;;;;;5088868;28;20410;-75
2023/10/21 01:01:37;;;;;;;28.73;16.08;;;;;;;;;;5074647;28;20441;-74
2023/10/21 01:04:04;;;;;;;28.38;15.35;;;;;;;;;;5103752;28;20439;-75
2023/10/21 01:06:31;;;;;;;27.15;15.07;;;;;;;;;;5105654;28;20406;-75
2023/10/21 01:08:57;;;;;;;30.35;15.65;;;;;;;;;;5076949;28;20402;-75
2023/10/21 01:11:23;;;;;;;28.53;14.57;;;;;;;;;;5103237;27;20524;-75
2023/10/21 01:13:51;;;;;;;28.55;14.88;;;;;;;;;;5080274;27;20411;-75
2023/10/21 01:16:17;;;;;;;28.15;14.27;;;;;;;;;;5098509;27;20405;-75
2023/10/21 01:18:43;;;;;;;24.20;13.60;;;;;;;;;;5096654;28;20396;-75
2023/10/21 01:21:10;;;;;;;22.83;13.30;;;;;;;;;;5112393;27;20462;-73
2023/10/21 01:23:36;;;;;;;23.55;12.73;;;;;;;;;;5095253;28;20748;-74
2023/10/21 01:26:03;;;;;;;22.75;13.05;;;;;;;;;;5095757;27;20408;-75
2023/10/21 01:28:29;;;;;;;24.33;13.68;;;;;;;;;;5080049;27;20952;-74
2023/10/21 01:30:56;;;;;;;25.50;13.27;;;;;;;;;;5111192;27;20500;-74
2023/10/21 01:33:22;;;;;;;25.48;13.27;;;;;;;;;;5083943;28;20404;-75
2023/10/21 01:35:48;;;;;;;23.55;12.57;;;;;;;;;;5111839;27;20422;-74
2023/10/21 01:38:18;;;;;;;22.80;12.43;;;;;;;;;;5112586;27;20394;-75
2023/10/21 01:40:44;;;;;;;20.35;12.25;;;;;;;;;;5112898;27;20414;-75
2023/10/21 01:43:10;;;;;;;26.23;12.60;;;;;;;;;;5113435;27;20468;-75
2023/10/21 01:45:37;;;;;;;23.25;12.43;;;11.60;99.90;;;;;;5088393;27;20890;-74
2023/10/21 01:48:04;;;;;;;24.45;12.77;;;;;;;;;;5109812;27;20419;-75
2023/10/21 01:50:31;;;;;;;23.23;12.65;;;;;;;;;;5110742;27;20422;-75
2023/10/21 01:52:57;;;;;;;27.13;14.00;;;;;;;;;;5089374;27;20689;-75
2023/10/21 01:55:23;;;;;;;24.88;12.90;;;;;;;;;;5084883;28;20884;-75
2023/10/21 01:57:50;;;;;;;23.90;12.90;;;;;;;;;;5110638;27;20432;-81
2023/10/21 02:00:19;;;;;;;23.50;13.27;;;;;;;;;;5063045;28;20900;-81
2023/10/21 02:02:50;;;;;;;26.63;12.98;;;11.40;99.90;;;;;;5091255;28;20422;-82
2023/10/21 02:05:16;;;;;;;27.08;13.60;;;;;;;;;;5113814;28;20467;-82
2023/10/21 02:07:42;;;;;;;24.58;13.27;;;;;;;;;;5094843;28;20960;-82
2023/10/21 02:10:09;;;;;;;26.47;13.83;;;;;;;;;;5080378;28;20419;-82
2023/10/21 02:12:35;;;;;;;26.17;14.00;;;;;;;;;;5090944;28;20426;-82
2023/10/21 02:15:01;;;;;;;28.15;14.70;;;;;;;;;;5088901;28;20395;-82
2023/10/21 02:17:27;;;;;;;32.15;14.75;;;;;;;;;;5106515;28;20400;-82
2023/10/21 02:19:56;;;;;;;27.27;14.90;;;;;;;;;;5119334;27;20421;-82
2023/10/21 02:22:26;;;;;;;29.05;15.60;;;10.70;99.90;;;;;;5108632;28;20801;-81
2023/10/21 02:24:56;;;;;;;31.80;16.67;;;;;;;;;;5097524;28;20416;-81
2023/10/21 02:27:22;;;;;;;32.08;16.60;;;;;;;;;;5090513;28;20400;-81
2023/10/21 02:29:49;;;;;;;31.93;16.37;;;10.70;99.90;;;;;;5113166;28;20611;-81
2023/10/21 02:32:15;;;;;;;37.30;17.70;;;;;;;;;;5092056;28;20400;-81
2023/10/21 02:34:42;;;;;;;33.60;17.52;;;;;;;;;;5104259;28;20407;-82
2023/10/21 02:37:08;;;;;;;38.15;18.35;;;;;;;;;;5105718;28;20435;-81
2023/10/21 02:39:34;;;;;;;35.97;19.10;;;;;;;;;;5113449;28;20503;-81
2023/10/21 02:42:01;;;;;;;37.85;19.38;;;;;;;;;;5090974;28;20406;-81
2023/10/21 02:44:27;;;;;;;41.35;19.85;;;;;;;;;;5100053;28;20404;-81
2023/10/21 02:46:53;;;;;;;40.17;19.58;;;;;;;;;;5095259;28;20505;-81
2023/10/21 02:49:19;;;;;;;42.60;20.42;;;;;;;;;;5099949;28;20485;-81
2023/10/21 02:51:45;;;;;;;36.13;21.00;;;;;;;;;;5111333;28;20395;-81
2023/10/21 02:54:11;;;;;;;39.80;21.75;;;;;;;;;;5088374;28;20411;-81
2023/10/21 02:56:41;;;;;;;47.15;22.85;;;;;;;;;;5092804;28;20983;-81
2023/10/21 02:59:07;;;;;;;52.70;24.10;;;;;;;;;;5094795;28;20432;-81
2023/10/21 03:01:33;;;;;;;47.55;23.10;;;;;;;;;;5093849;28;20388;-81
2023/10/21 03:03:59;;;;;;;42.75;23.30;;;;;;;;;;5106913;28;20441;-81
2023/10/21 03:06:25;;;;;;;47.87;24.47;;;;;;;;;;5113291;28;20433;-81
2023/10/21 03:08:52;;;;;;;51.10;24.92;;;;;;;;;;5109043;27;20475;-81
2023/10/21 03:11:18;;;;;;;47.60;24.92;;;;;;;;;;5129470;28;20421;-81
2023/10/21 03:13:44;;;;;;;51.05;25.55;;;;;;;;;;5087366;28;20478;-81
2023/10/21 03:16:12;;;;;;;52.97;26.38;;;;;;;;;;5113698;27;20479;-81
2023/10/21 03:18:38;;;;;;;52.60;26.30;;;11.00;99.90;;;;;;5114471;27;20405;-82
2023/10/21 03:21:04;;;;;;;47.55;25.27;;;10.80;99.90;;;;;;5100471;27;20398;-80
2023/10/21 03:23:34;;;;;;;57.13;26.90;;;;;;;;;;5101563;28;20411;-80
2023/10/21 03:26:06;;;;;;;51.60;24.40;;;11.20;99.90;;;;;;5095157;28;20553;-80
2023/10/21 03:28:32;;;;;;;53.00;25.30;;;;;;;;;;5105637;28;20491;-80
2023/10/21 03:30:59;;;;;;;50.20;25.70;;;11.10;99.90;;;;;;5096215;27;20515;-81
2023/10/21 03:33:26;;;;;;;50.53;25.38;;;;;;;;;;5104198;28;20434;-81
2023/10/21 03:35:56;;;;;;;59.72;27.00;;;11.10;99.90;;;;;;5079109;28;20479;-81
2023/10/21 03:38:23;;;;;;;55.30;26.27;;;;;;;;;;5096342;28;20884;-80
2023/10/21 03:41:08;;;;;;;51.80;26.58;;;;;;;;;;5105262;28;20440;-81
2023/10/21 03:43:35;;;;;;;52.17;27.08;;;;;;;;;;5100392;27;20953;-80
2023/10/21 03:46:11;;;;;;;47.60;24.90;;;10.60;99.90;;;;;;5113004;27;20402;-81
2023/10/21 03:48:37;;;;;;;48.58;25.05;;;;;;;;;;5098547;27;20401;-81
2023/10/21 03:51:07;;;;;;;45.28;24.50;;;;;;;;;;5112790;27;20419;-81
2023/10/21 03:53:33;;;;;;;47.67;24.73;;;;;;;;;;5115518;27;20435;-74
2023/10/21 03:56:00;;;;;;;43.13;24.13;;;;;;;;;;5110841;28;20403;-74
2023/10/21 03:58:26;;;;;;;57.10;25.17;;;;;;;;;;5096208;28;20732;-74
2023/10/21 04:00:52;;;;;;;46.28;23.95;;;;;;;;;;5113526;27;20401;-74
2023/10/21 04:03:19;;;;;;;49.08;24.13;;;;;;;;;;5103175;27;20455;-80
2023/10/21 04:05:45;;;;;;;43.85;23.63;;;;;;;;;;5111801;27;20428;-80
2023/10/21 04:08:11;;;;;;;49.40;24.33;;;;;;;;;;5098920;27;20411;-80
2023/10/21 04:10:37;;;;;;;39.05;22.20;;;;;;;;;;5095335;28;20424;-81
2023/10/21 04:13:03;;;;;;;42.67;22.95;;;;;;;;;;5093601;28;20398;-80
2023/10/21 04:15:31;;;;;;;43.00;23.07;;;;;;;;;;5089139;28;20404;-81
2023/10/21 04:17:57;;;;;;;39.08;22.35;;;;;;;;;;5096148;28;20792;-80
2023/10/21 04:20:23;;;;;;;42.15;21.95;;;;;;;;;;5108045;27;20424;-80
2023/10/21 04:22:49;;;;;;;43.38;22.40;;;;;;;;;;5102741;28;20485;-80
2023/10/21 04:25:16;;;;;;;38.45;23.23;;;;;;;;;;5092370;28;20414;-80
2023/10/21 04:27:42;;;;;;;41.85;22.65;;;;;;;;;;5103194;28;20405;-81
2023/10/21 04:30:08;;;;;;;48.15;23.00;;;;;;;;;;5094696;28;20412;-80
2023/10/21 04:32:34;;;;;;;40.33;22.02;;;;;;;;;;5108116;28;20468;-81
2023/10/21 04:35:00;;;;;;;42.10;21.42;;;10.80;99.90;;;;;;5095112;28;20458;-80
2023/10/21 04:37:27;;;;;;;40.83;23.15;;;;;;;;;;5103018;27;20768;-81
2023/10/21 04:39:53;;;;;;;44.83;23.08;;;;;;;;;;5095220;28;20408;-80
2023/10/21 04:42:19;;;;;;;46.07;23.13;;;;;;;;;;5109018;28;20404;-81
2023/10/21 04:44:45;;;;;;;43.40;23.40;;;;;;;;;;5074942;28;20398;-80
2023/10/21 04:47:12;;;;;;;42.00;22.92;;;;;;;;;;5106224;28;20404;-81
2023/10/21 04:49:38;;;;;;;43.85;23.75;;;;;;;;;;5101853;28;20422;-81
2023/10/21 04:52:05;;;;;;;62.92;26.58;;;;;;;;;;5097252;28;20402;-80
2023/10/21 04:54:31;;;;;;;71.82;26.60;;;;;;;;;;5098331;27;20418;-81
2023/10/21 04:56:57;;;;;;;93.28;30.35;;;;;;;;;;5107645;28;20396;-80
2023/10/21 04:59:23;;;;;;;97.10;29.27;;;;;;;;;;5103213;28;20884;-81
2023/10/21 05:01:49;;;;;;;60.90;24.97;;;;;;;;;;5106779;28;20756;-81
2023/10/21 05:04:15;;;;;;;103.80;29.15;;;;;;;;;;5105033;28;20911;-83
2023/10/21 05:06:41;;;;;;;49.38;24.90;;;;;;;;;;5103002;27;20402;-81
2023/10/21 05:09:07;;;;;;;50.97;26.08;;;;;;;;;;5112882;27;21257;-80
2023/10/21 05:11:33;;;;;;;72.63;28.23;;;;;;;;;;5102618;27;20416;-80
2023/10/21 05:13:59;;;;;;;100.25;28.63;;;;;;;;;;5105374;27;20403;-81
2023/10/21 05:16:25;;;;;;;60.90;26.95;;;;;;;;;;5098275;27;20403;-81
2023/10/21 05:18:51;;;;;;;153.38;31.48;;;;;;;;;;5104826;27;20409;-81
2023/10/21 05:21:17;;;;;;;139.17;31.03;;;;;;;;;;5115308;27;20406;-81
2023/10/21 05:23:43;;;;;;;58.95;25.42;;;;;;;;;;5089013;28;20415;-81
2023/10/21 05:26:10;;;;;;;49.65;25.42;;;;;;;;;;5109053;27;20419;-81
2023/10/21 05:28:36;;;;;;;76.85;28.45;;;;;;;;;;5091732;28;20396;-81
2023/10/21 05:31:03;;;;;;;49.17;25.63;;;;;;;;;;5100374;27;20418;-81
2023/10/21 05:33:29;;;;;;;43.03;24.52;;;;;;;;;;5094294;27;20400;-81
2023/10/21 05:35:58;;;;;;;41.20;22.77;;;;;;;;;;5084797;27;20438;-82
2023/10/21 05:38:25;;;;;;;68.03;25.95;;;;;;;;;;5113630;27;20410;-81
2023/10/21 05:40:51;;;;;;;44.40;24.73;;;;;;;;;;5094333;28;20464;-81
2023/10/21 05:43:17;;;;;;;45.72;25.10;;;;;;;;;;5108296;27;20798;-81
2023/10/21 05:45:43;;;;;;;46.53;23.45;;;;;;;;;;5109640;27;20819;-81
2023/10/21 05:48:12;;;;;;;44.30;23.70;;;;;;;;;;5113030;27;20424;-80
2023/10/21 05:50:38;;;;;;;43.20;23.75;;;;;;;;;;5098467;27;20517;-81
2023/10/21 05:53:04;;;;;;;42.72;23.42;;;;;;;;;;5081040;27;20399;-80
2023/10/21 05:55:30;;;;;;;43.55;23.88;;;;;;;;;;5106671;27;20417;-81
2023/10/21 05:57:56;;;;;;;39.60;23.10;;;;;;;;;;5108606;28;20429;-80
2023/10/21 06:00:23;;;;;;;40.22;22.42;;;;;;;;;;5094913;28;20408;-79
2023/10/21 06:02:49;;;;;;;48.00;23.05;;;;;;;;;;5112793;28;20404;-82
2023/10/21 06:05:15;;;;;;;43.70;23.50;;;;;;;;;;5130058;27;20413;-81
2023/10/21 06:07:42;;;;;;;41.33;23.17;;;;;;;;;;5093389;28;20411;-83
2023/10/21 06:10:08;;;;;;;40.23;21.30;;;10.80;99.90;;;;;;5091347;28;20797;-82
2023/10/21 06:12:35;;;;;;;41.85;21.95;;;;;;;;;;5093799;28;20401;-83
2023/10/21 06:15:01;;;;;;;35.78;21.02;;;;;;;;;;5104715;28;20430;-82
2023/10/21 06:17:27;;;;;;;38.08;22.38;;;;;;;;;;5110062;28;20449;-84
2023/10/21 06:19:53;;;;;;;41.88;22.23;;;;;;;;;;5074302;28;20471;-84
2023/10/21 06:22:20;;;;;;;40.17;22.42;;;;;;;;;;5108228;28;20417;-83
2023/10/21 06:24:46;;;;;;;39.45;20.75;;;10.70;99.90;;;;;;5090777;28;20406;-83
2023/10/21 06:27:13;;;;;;;36.92;21.67;;;;;;;;;;5104515;28;20400;-83
2023/10/21 06:29:39;;;;;;;65.15;24.35;;;;;;;;;;5110957;28;20931;-82
2023/10/21 06:32:08;;;;;;;38.80;21.33;;;;;;;;;;5105690;28;20402;-83
2023/10/21 06:34:34;;;;;;;43.33;21.88;;;;;;;;;;5090706;28;20443;-83
2023/10/21 06:37:00;;;;;;;40.60;21.75;;;;;;;;;;5100852;28;20411;-83
2023/10/21 06:39:26;;;;;;;39.20;21.38;;;;;;;;;;5096554;28;20978;-82
2023/10/21 06:41:52;;;;;;;35.45;20.77;;;;;;;;;;5062230;28;20427;-82
2023/10/21 06:44:19;;;;;;;36.30;20.00;;;;;;;;;;5084652;28;20406;-83
2023/10/21 06:46:45;;;;;;;38.33;20.55;;;;;;;;;;5097121;28;20404;-82
2023/10/21 06:49:11;;;;;;;33.28;19.90;;;;;;;;;;5107652;28;20420;-82
2023/10/21 06:51:37;;;;;;;34.93;20.30;;;;;;;;;;5075229;28;20472;-83
2023/10/21 06:54:05;;;;;;;36.22;20.60;;;;;;;;;;5096148;28;20402;-83
2023/10/21 06:56:31;;;;;;;30.73;19.52;;;;;;;;;;5116520;27;20498;-82
2023/10/21 06:58:57;;;;;;;37.42;19.85;;;;;;;;;;5085109;28;20744;-83
2023/10/21 07:01:23;;;;;;;33.17;19.88;;;;;;;;;;5109821;28;20437;-82
2023/10/21 07:03:50;;;;;;;39.35;20.60;;;;;;;;;;5118857;28;20808;-83
2023/10/21 07:06:20;;;;;;;33.20;19.30;;;;;;;;;;5096630;28;20486;-83
2023/10/21 07:08:47;;;;;;;33.93;19.87;;;;;;;;;;5116251;28;20412;-82
2023/10/21 07:11:13;;;;;;;35.45;20.25;;;11.30;99.90;;;;;;5109803;28;20433;-83
2023/10/21 07:13:41;;;;;;;31.88;19.40;;;;;;;;;;5101218;28;20484;-83
2023/10/21 07:16:10;;;;;;;33.33;19.23;;;;;;;;;;5089076;28;20394;-84
2023/10/21 07:18:40;;;;;;;31.23;18.70;;;;;;;;;;5114083;28;20405;-83
2023/10/21 07:21:08;;;;;;;28.40;18.23;;;;;;;;;;5105139;27;20504;-84
2023/10/21 07:23:35;;;;;;;31.77;18.40;;;;;;;;;;5114438;28;20415;-83
2023/10/21 07:26:02;;;;;;;28.77;17.73;;;;;;;;;;5097592;28;20725;-83
2023/10/21 07:28:28;;;;;;;28.15;17.85;;;;;;;;;;5117325;27;20424;-85
2023/10/21 07:30:55;;;;;;;30.25;17.67;;;;;;;;;;5121211;27;20786;-74
2023/10/21 07:33:21;;;;;;;28.35;17.80;;;12.10;99.90;;;;;;5111936;28;20814;-76
2023/10/21 07:35:51;;;;;;;27.45;16.75;;;;;;;;;;5106881;28;20440;-75
2023/10/21 07:38:17;;;;;;;27.05;17.35;;;;;;;;;;5104670;28;20439;-75
2023/10/21 07:40:45;;;;;;;25.27;16.95;;;;;;;;;;5095655;28;20416;-74
2023/10/21 07:43:11;;;;;;;28.70;17.23;;;;;;;;;;5113478;28;20412;-74
2023/10/21 07:45:40;;;;;;;31.27;17.50;;;12.20;99.90;;;;;;5113244;28;20747;-74
2023/10/21 07:48:07;;;;;;;26.85;16.83;;;;;;;;;;5096669;28;20441;-75
2023/10/21 07:50:33;;;;;;;27.63;17.13;;;;;;;;;;5093064;28;20421;-75
2023/10/21 07:52:59;;;;;;;28.05;16.73;;;;;;;;;;5105169;27;20425;-75
2023/10/21 07:55:25;;;;;;;24.55;16.80;;;;;;;;;;5102730;27;20432;-75
2023/10/21 07:57:51;;;;;;;25.40;17.00;;;;;;;;;;5081390;28;20777;-75
2023/10/21 08:00:17;;;;;;;25.55;16.33;;;;;;;;;;5110851;27;20454;-74
2023/10/21 08:02:43;;;;;;;31.75;16.92;;;;;;;;;;5092746;28;20487;-75
2023/10/21 08:05:10;;;;;;;28.13;17.75;;;;;;;;;;5112191;27;20420;-75
2023/10/21 08:07:37;;;;;;;24.40;16.58;;;;;;;;;;5094253;28;20397;-75
2023/10/21 08:10:07;;;;;;;25.98;16.52;;;;;;;;;;5107480;28;20486;-75
2023/10/21 08:12:33;;;;;;;26.10;16.38;;;;;;;;;;5119042;27;20728;-75
2023/10/21 08:15:04;;;;;;;25.65;15.98;;;12.30;99.90;;;;;;5083284;28;20416;-75
2023/10/21 08:17:30;;;;;;;28.27;17.37;;;;;;;;;;5082914;28;20404;-74
2023/10/21 08:19:56;;;;;;;34.90;22.42;;;;;;;;;;5093982;28;20404;-74
2023/10/21 08:22:22;;;;;;;29.17;19.00;;;;;;;;;;5084705;27;20517;-75
2023/10/21 08:24:48;;;;;;;31.98;21.83;;;;;;;;;;5086866;28;20437;-75
2023/10/21 08:27:15;;;;;;;28.57;19.37;;;;;;;;;;5080121;28;20415;-75
2023/10/21 08:29:42;;;;;;;25.02;17.25;;;;;;;;;;5074541;28;20421;-75
2023/10/21 08:32:08;;;;;;;24.90;17.42;;;;;;;;;;5103367;27;20426;-75
2023/10/21 08:34:37;;;;;;;29.65;15.73;;;;;;;;;;5101839;28;20397;-74
2023/10/21 08:37:04;;;;;;;24.75;15.35;;;;;;;;;;5080707;28;20396;-74
2023/10/21 08:39:30;;;;;;;19.60;14.32;;;;;;;;;;5083055;28;20413;-74
2023/10/21 08:41:56;;;;;;;21.65;14.70;;;;;;;;;;5112176;27;20780;-75
2023/10/21 08:44:23;;;;;;;19.77;13.68;;;;;;;;;;5113220;27;20957;-74
2023/10/21 08:46:49;;;;;;;20.27;12.52;;;;;;;;;;5089872;28;20453;-74
2023/10/21 08:49:16;;;;;;;21.98;13.43;;;;;;;;;;5090040;28;20420;-74
2023/10/21 08:51:44;;;;;;;20.17;12.23;;;;;;;;;;5107282;27;20422;-73
2023/10/21 08:54:12;;;;;;;18.05;11.55;;;;;;;;;;5111151;27;20415;-74
2023/10/21 08:56:39;;;;;;;17.08;11.65;;;;;;;;;;5113477;27;20900;-74
2023/10/21 08:59:05;;;;;;;14.30;10.38;;;;;;;;;;5095509;27;20418;-74
2023/10/21 09:01:31;;;;;;;12.23;9.55;;;;;;;;;;5080900;28;20412;-74
2023/10/21 09:03:58;;;;;;;15.95;9.55;;;;;;;;;;5092589;27;20396;-74
2023/10/21 09:06:24;;;;;;;13.07;9.10;;;;;;;;;;5096912;27;20410;-75
2023/10/21 09:08:50;;;;;;;11.85;8.23;;;;;;;;;;5098271;27;20414;-75
2023/10/21 09:11:19;;;;;;;11.88;8.52;;;14.50;99.90;;;;;;5083735;28;20497;-75
2023/10/21 09:13:48;;;;;;;13.93;8.82;;;;;;;;;;5083893;28;20896;-74
2023/10/21 09:16:29;;;;;;;14.07;7.93;;;15.20;99.90;;;;;;5096132;28;20402;-75
2023/10/21 09:18:58;;;;;;;12.10;7.80;;;;;;;;;;5077363;28;20404;-75
2023/10/21 09:21:38;;;;;;;11.95;6.93;;;15.30;99.90;;;;;;5092853;27;20491;-75
2023/10/21 09:24:20;;;;;;;12.70;6.90;;;15.10;99.90;;;;;;5113131;27;20434;-75
2023/10/21 09:26:47;;;;;;;13.18;7.15;;;;;;;;;;5081882;27;20430;-74
2023/10/21 09:29:18;;;;;;;12.97;7.10;;;14.90;99.90;;;;;;5124636;27;20406;-75
2023/10/21 09:31:47;;;;;;;11.50;7.03;;;;;;;;;;5120535;27;20420;-74
2023/10/21 09:34:33;;;;;;;13.48;7.30;;;;;;;;;;5111249;27;20925;-75
2023/10/21 09:36:59;;;;;;;12.65;6.45;;;;;;;;;;5105304;27;20494;-76
2023/10/21 09:39:26;;;;;;;14.93;6.93;;;14.50;99.90;;;;;;5111044;28;20457;-76
2023/10/21 09:41:53;;;;;;;13.65;6.95;;;;;;;;;;5105680;27;20394;-75
2023/10/21 09:44:19;;;;;;;9.63;6.63;;;;;;;;;;5090070;28;20401;-75
2023/10/21 09:46:46;;;;;;;9.93;6.10;;;;;;;;;;5100216;28;20477;-76
2023/10/21 09:49:16;;;;;;;12.02;6.20;;;;;;;;;;5097507;27;20477;-75
2023/10/21 09:52:04;;;;;;;10.43;5.88;;;;;;;;;;5102304;27;20937;-76
2023/10/21 09:54:36;;;;;;;11.63;6.40;;;;;;;;;;5129819;27;20403;-75
2023/10/21 09:57:02;;;;;;;9.33;5.40;;;;;;;;;;5122187;27;20422;-75
2023/10/21 09:59:29;;;;;;;10.82;5.22;;;;;;;;;;5125357;27;20738;-74
2023/10/21 10:01:57;;;;;;;10.50;5.28;;;;;;;;;;5114516;27;20391;-75
2023/10/21 10:04:26;;;;;;;9.05;4.82;;;14.60;99.90;;;;;;5095099;28;20418;-74
2023/10/21 10:06:57;;;;;;;10.10;4.80;;;;;;;;;;5093938;28;20926;-74
2023/10/21 10:09:23;;;;;;;11.20;4.93;;;14.40;99.90;;;;;;5107736;27;20418;-74
2023/10/21 10:11:50;;;;;;;8.57;5.45;;;;;;;;;;5109244;28;20462;-74
2023/10/21 10:14:16;;;;;;;9.10;5.50;;;;;;;;;;5089686;28;20473;-74
2023/10/21 10:16:44;;;;;;;8.95;5.22;;;;;;;;;;5074051;28;20760;-75
2023/10/21 10:19:12;;;;;;;11.10;5.68;;;;;;;;;;5086515;28;20748;-74
2023/10/21 10:21:42;;;;;;;11.55;6.53;;;;;;;;;;5070203;28;20426;-74
2023/10/21 10:24:08;;;;;;;11.75;6.75;;;;;;;;;;5096324;28;20482;-75
2023/10/21 10:26:36;;;;;;;12.32;6.90;;;14.00;99.90;;;;;;5095070;28;20407;-75
2023/10/21 10:29:26;;;;;;;10.05;6.40;;;14.00;99.90;;;;;;5091711;28;20407;-75
2023/10/21 10:32:15;;;;;;;10.60;6.43;;;14.00;99.90;;;;;;5114968;27;20406;-76
2023/10/21 10:34:57;;;;;;;16.67;6.63;;;14.00;99.90;;;;;;5079480;28;20614;-75
2023/10/21 10:37:31;;;;;;;6.63;5.22;;;14.10;99.90;;;;;;5073821;28;20469;-83
2023/10/21 10:39:58;;;;;;;6.22;4.68;;;;;;;;;;5094446;28;20441;-84
2023/10/21 10:42:31;;;;;;;8.40;4.70;;;14.10;99.90;;;;;;5114009;28;20400;-83
2023/10/21 10:44:57;;;;;;;6.75;4.10;;;;;;;;;;5099707;28;20413;-82
2023/10/21 10:47:23;;;;;;;8.20;4.30;;;;;;;;;;5098533;28;20821;-83
2023/10/21 10:49:56;;;;;;;6.65;3.95;;;;;;;;;;5093492;28;20418;-83
2023/10/21 10:52:27;;;;;;;7.38;3.67;;;13.80;99.90;;;;;;5082188;28;20420;-82
2023/10/21 10:54:53;;;;;;;5.47;3.40;;;;;;;;;;5098596;28;20400;-84
2023/10/21 10:57:20;;;;;;;4.18;2.50;;;;;;;;;;5115065;28;20465;-84
2023/10/21 10:59:49;;;;;;;4.75;2.50;;;;;;;;;;5114229;28;20428;-84
2023/10/21 11:02:16;;;;;;;5.97;2.55;;;;;;;;;;5073919;28;20413;-84
2023/10/21 11:04:44;;;;;;;5.28;2.00;;;;;;;;;;5077173;28;20894;-85
2023/10/21 11:07:11;;;;;;;3.92;1.70;;;;;;;;;;5094247;28;20405;-84
2023/10/21 11:09:38;;;;;;;4.75;1.63;;;;;;;;;;5080508;27;20426;-84
2023/10/21 11:12:04;;;;;;;4.07;1.70;;;;;;;;;;5112428;27;20480;-84
2023/10/21 11:14:30;;;;;;;5.38;1.92;;;;;;;;;;5123314;27;20894;-86
2023/10/21 11:16:56;;;;;;;5.20;1.80;;;;;;;;;;5111352;27;20852;-86
2023/10/21 11:19:25;;;;;;;5.37;1.83;;;;;;;;;;5094906;28;20410;-86
2023/10/21 11:21:52;;;;;;;3.92;1.60;;;;;;;;;;5115800;27;20429;-86
2023/10/21 11:24:22;;;;;;;4.07;1.73;;;;;;;;;;5101818;27;20399;-85
2023/10/21 11:26:49;;;;;;;14.10;1.92;;;14.30;99.90;;;;;;5116475;27;20402;-85
2023/10/21 11:29:17;;;;;;;3.50;1.60;;;;;;;;;;5099072;27;20894;-85
2023/10/21 11:31:44;;;;;;;4.40;1.80;;;;;;;;;;5111083;27;20418;-85
2023/10/21 11:34:17;;;;;;;4.38;1.80;;;;;;;;;;5093748;27;20430;-85
2023/10/21 11:36:44;;;;;;;3.50;1.70;;;;;;;;;;5098552;27;20398;-84
2023/10/21 11:39:14;;;;;;;5.25;1.90;;;;;;;;;;5096526;27;20459;-85
2023/10/21 11:41:49;;;;;;;3.03;1.70;;;14.20;99.90;;;;;;5084016;27;20498;-85
2023/10/21 11:44:24;;;;;;;2.53;1.80;;;;;;;;;;5099648;28;20429;-85
2023/10/21 11:46:50;;;;;;;4.18;1.67;;;;;;;;;;5099318;28;20440;-85
2023/10/21 11:49:19;;;;;;;2.90;1.50;;;;;;;;;;5121551;27;20407;-86
2023/10/21 11:51:54;;;;;;;3.78;1.48;;;;;;;;;;5125917;27;20451;-85
2023/10/21 11:54:39;;;;;;;3.07;1.60;;;14.30;99.90;;;;;;5117127;27;20407;-85
2023/10/21 12:08:11;;;;;;;2.23;1.30;;;;;;;;;;5117121;27;20408;-84
2023/10/21 12:18:26;;;;;;;2.78;1.20;;;;;;;;;;5100753;27;20417;-84
2023/10/21 12:32:20;;;;;;;4.05;1.08;;;;;;;;;;5054809;28;20531;-85
2023/10/21 12:37:25;;;;;;;2.60;1.10;;;;;;;;;;5125224;27;20477;-75
2023/10/21 12:40:30;;;;;;;2.30;1.00;;;;;;;;;;5078843;28;20409;-74
2023/10/21 12:42:46;;;;;;;2.42;1.02;;;;;;;;;;5110038;27;20431;-74
2023/10/21 12:45:18;;;;;;;4.07;1.40;;;;;;;;;;5089445;28;20410;-75
2023/10/21 12:47:48;;;;;;;3.58;1.60;;;14.70;99.90;;;;;;5106504;27;20399;-74
2023/10/21 12:50:18;;;;;;;4.63;1.40;;;;;;;;;;5099497;28;20424;-75
2023/10/21 12:52:44;;;;;;;4.65;1.20;;;;;;;;;;5110137;27;20762;-75
2023/10/21 12:55:14;;;;;;;2.67;1.30;;;;;;;;;;5100719;27;20413;-75
2023/10/21 12:57:43;;;;;;;3.28;1.20;;;15.10;99.90;;;;;;5079105;28;20429;-75
2023/10/21 13:00:09;;;;;;;3.15;1.20;;;;;;;;;;5073226;28;20424;-75
2023/10/21 13:02:36;;;;;;;3.50;1.10;;;15.00;99.90;;;;;;5105337;27;20423;-75
2023/10/21 13:05:03;;;;;;;4.50;1.30;;;15.00;99.90;;;;;;5102570;27;20977;-75
2023/10/21 13:07:31;;;;;;;4.70;1.30;;;;;;;;;;5107943;27;20400;-75
2023/10/21 13:09:58;;;;;;;3.38;1.25;;;;;;;;;;5108901;27;20557;-75
2023/10/21 13:12:24;;;;;;;3.38;1.20;;;;;;;;;;5072804;28;20909;-75
2023/10/21 13:14:52;;;;;;;3.65;1.30;;;14.80;99.90;;;;;;5099317;27;20396;-75
2023/10/21 13:17:18;;;;;;;2.83;1.10;;;;;;;;;;5113350;27;20420;-74
2023/10/21 13:19:46;;;;;;;3.75;1.25;;;;;;;;;;5097743;28;20436;-74
2023/10/21 13:22:13;;;;;;;3.70;1.30;;;14.60;99.90;;;;;;5091483;28;20755;-75
2023/10/21 13:24:39;;;;;;;6.40;1.60;;;;;;;;;;5080140;27;20475;-75
2023/10/21 13:27:05;;;;;;;3.88;1.40;;;;;;;;;;5110929;28;20400;-75
2023/10/21 13:29:36;;;;;;;3.65;1.30;;;;;;;;;;5093907;28;20409;-75
2023/10/21 13:32:03;;;;;;;5.10;1.70;;;;;;;;;;5103673;28;20426;-75
2023/10/21 13:34:30;;;;;;;3.38;1.40;;;;;;;;;;5106149;27;20422;-75
2023/10/21 13:36:56;;;;;;;5.03;1.50;;;15.00;99.90;;;;;;5092977;28;20422;-75
2023/10/21 13:39:23;;;;;;;3.33;1.30;;;;;;;;;;5104444;28;20428;-74
2023/10/21 13:41:49;;;;;;;4.90;1.38;;;;;;;;;;5088496;28;20413;-75
2023/10/21 13:44:16;;;;;;;4.20;1.40;;;;;;;;;;5099483;28;20406;-75
2023/10/21 13:46:42;;;;;;;4.75;1.38;;;;;;;;;;5088806;28;20410;-74
2023/10/21 13:49:14;;;;;;;3.53;1.20;;;;;;;;;;5085675;28;20768;-75
2023/10/21 13:51:51;;;;;;;3.95;1.30;;;;;;;;;;5085735;28;21045;-75
2023/10/21 13:54:17;;;;;;;3.70;1.10;;;;;;;;;;5077928;28;20411;-75
2023/10/21 13:56:43;;;;;;;3.47;1.30;;;;;;;;;;5077505;27;20440;-76
2023/10/21 13:59:13;;;;;;;4.43;1.50;;;;;;;;;;5109849;28;20467;-75
2023/10/21 14:01:43;;;;;;;4.57;1.33;;;15.40;99.90;;;;;;5096432;28;20764;-75
2023/10/21 14:04:14;;;;;;;3.33;1.13;;;;;;;;;;5105847;28;20404;-76
2023/10/21 14:06:40;;;;;;;4.38;1.30;;;;;;;;;;5098548;28;20414;-76
2023/10/21 14:09:13;;;;;;;5.45;1.48;;;;;;;;;;5098123;28;20402;-75
2023/10/21 14:11:43;;;;;;;5.67;1.57;;;;;;;;;;5111149;27;20463;-75
2023/10/21 14:14:10;;;;;;;5.85;1.42;;;;;;;;;;5106522;28;20408;-76
2023/10/21 14:16:36;;;;;;;5.13;1.67;;;;;;;;;;5078380;28;20412;-75
2023/10/21 14:19:03;;;;;;;4.93;1.50;;;;;;;;;;5106971;28;20396;-75
2023/10/21 14:21:29;;;;;;;4.88;1.23;;;;;;;;;;5091127;28;20408;-75
2023/10/21 14:23:55;;;;;;;2.65;1.10;;;;;;;;;;5094154;28;20794;-75
2023/10/21 14:26:21;;;;;;;6.07;1.30;;;;;;;;;;5080990;28;20410;-75
2023/10/21 14:28:47;;;;;;;3.83;1.50;;;15.20;99.90;;;;;;5096810;28;20403;-75
2023/10/21 14:31:19;;;;;;;4.53;1.55;;;15.00;99.90;;;;;;5122024;28;20937;-75
2023/10/21 14:33:45;;;;;;;5.28;1.40;;;;;;;;;;5109394;28;20400;-75
2023/10/21 14:36:11;;;;;;;7.65;1.77;;;;;;;;;;5103550;28;20424;-74
2023/10/21 14:38:37;;;;;;;4.82;1.38;;;;;;;;;;5112795;28;20816;-75
2023/10/21 14:41:03;;;;;;;4.07;1.42;;;;;;;;;;5094887;28;20527;-74